Terminal Aerodrome Forecast
Issued by NWS Jackson, MS

Home | Current Version | Previous Version | Text Only | Print | Product List | Glossary On
Versions: 1 2 3 4 5 6 7 8 9 10 11 12 13 14 15 16
000
FTUS44 KJAN 220500
TAFHBG
TAF
KHBG 220539Z 2206/2306 18003KT 1/2SM HZ SCT250
     FM220800 00000KT 3SM HZ SCT250
     FM221300 27004KT P6SM SCT050
     FM222100 12010KT P6SM VCTS BKN040CB
     FM230000 21003KT P6SM FEW250=

USA.gov is the U.S. government's official web portal to all federal, state and local government web resources and services.